Keswick, United Kingdom

11:04 AM BST on August 24, 2016 (GMT +0100)
Keswick - Cumbria | | Change Station

Elev 312 ft 54.60 °N, 3.13 °W | Updated 4 minutes ago

Partly Cloudy
Partly Cloudy
62.4 °F
Feels Like 62.4 °F
N
3.1
Wind Variable Wind from NW
Gusts 3.1 mph

Today
High -- | Low -- °F
--% Chance of Precip.
Yesterday
High -- | Low -- °F
Precip. -- in
Pressure 30.12 in
Visibility 6.2 miles
Clouds Few 2500 ft
Dew Point 54 °F
Humidity 75%
Rainfall 0.14 in
Snow Depth Not available.
6:05 AM 8:22 PM
Waning Gibbous, 58% visible
METAR EGNC 240950Z 27003KT 9999 FEW025 17/13 Q1020
Pressure 30.12 in
Visibility 6.2 miles
Clouds Few 2500 ft
Dew Point 54 °F
Humidity 75%
Rainfall 0.14 in
Snow Depth Not available.
6:05 AM 8:22 PM
Waning Gibbous, 58% visible
METAR EGNC 240950Z 27003KT 9999 FEW025 17/13 Q1020

10-Day Weather Forecast

×

Almanac

Astronomy

Aug. 24, 2016 Rise Set
Actual Time
Civil Twilight
Nautical Twilight
Astronomical Twilight
Moon
Length of Visible Light
Length of Day
Tomorrow will be .
, % of the Moon is Illuminated

Today's Extremes

Country Highs Country Lows

Community

WunderPhotos

Upload Photos

1,934,560 photos uploaded!

WunderBlog® & News

Nearby

Air Quality

  Air Quality AQ Index Pollutant
Not available.

Snow Depth

Station Depth Elevation

Earthquake Activity

City Distance Mag. Time & Date
Minimum magnitude displayed is 2.5.

Coastal Water Temperatures

Place Temperature

Stations

Nearby Weather Stations

Station Location Temp. Windchill Dew Point Humidity Wind Precip. Elev Updated Type